createdAt,value
2023-02-28T00:00:30.328Z,102927.88
2023-02-28T00:02:33.954Z,102929.59
2023-02-28T00:04:37.498Z,102920.09
2023-02-28T00:06:40.998Z,102931.31
2023-02-28T00:08:44.764Z,102928.72
2023-02-28T00:10:48.254Z,102927.00
2023-02-28T00:12:52.849Z,102930.47
2023-02-28T00:14:56.321Z,102929.59
2023-02-28T00:17:01.583Z,102935.66
2023-02-28T00:19:04.996Z,102932.19
2023-02-28T00:21:09.468Z,102928.75
2023-02-28T00:23:12.926Z,102929.59
2023-02-28T00:25:18.856Z,102939.09
2023-02-28T00:27:22.355Z,102938.25
2023-02-28T00:29:26.675Z,102944.28
2023-02-28T00:31:30.381Z,102937.41
2023-02-28T00:33:35.518Z,102940.00
2023-02-28T00:35:39.074Z,102937.41
2023-02-28T00:37:42.641Z,102939.13
2023-02-28T00:39:46.284Z,102936.53
2023-02-28T00:41:49.758Z,102936.53
2023-02-28T00:43:53.235Z,102936.53
2023-02-28T00:45:56.749Z,102940.88
2023-02-28T00:48:01.156Z,102934.81
2023-02-28T00:50:07.799Z,102946.91
2023-02-28T00:52:11.308Z,102948.63
2023-02-28T00:54:15.238Z,102953.84
2023-02-28T00:56:18.963Z,102945.19
2023-02-28T00:58:24.368Z,102954.69
2023-02-28T01:00:28.337Z,102947.78
2023-02-28T01:02:31.899Z,102941.75
2023-02-28T01:04:35.520Z,102938.28
2023-02-28T01:06:40.533Z,102947.78
2023-02-28T01:08:47.308Z,102946.06
2023-02-28T01:10:50.802Z,102940.00
2023-02-28T01:12:54.267Z,102942.59
2023-02-28T01:14:57.737Z,102945.19
2023-02-28T01:17:01.157Z,102947.75
2023-02-28T01:19:04.622Z,102941.72
2023-02-28T01:21:10.208Z,102941.75
2023-02-28T01:23:16.425Z,102944.34
2023-02-28T01:25:19.915Z,102936.56
2023-02-28T01:27:23.410Z,102938.28
2023-02-28T01:29:26.982Z,102953.81
2023-02-28T01:31:30.783Z,102945.19
2023-02-28T01:33:34.875Z,102942.59
2023-02-28T01:35:38.685Z,102936.53
2023-02-28T01:37:42.158Z,102940.88
2023-02-28T01:39:46.964Z,102946.91
2023-02-28T01:41:50.417Z,102948.63
2023-02-28T01:44:04.231Z,102949.47
2023-02-28T01:46:07.764Z,102947.75
2023-02-28T01:48:11.710Z,102946.03
2023-02-28T01:50:21.548Z,102940.84
2023-02-28T01:52:26.110Z,102946.00
2023-02-28T01:54:33.663Z,102943.41
2023-02-28T01:56:39.125Z,102943.41
2023-02-28T01:58:42.726Z,102947.72
2023-02-28T02:00:46.289Z,102934.78
2023-02-28T02:02:53.585Z,102933.09
2023-02-28T02:05:02.846Z,102945.16
2023-02-28T02:07:06.977Z,102943.44
2023-02-28T02:09:10.702Z,102938.25
2023-02-28T02:11:19.580Z,102927.91
2023-02-28T02:13:47.794Z,102938.25
2023-02-28T02:16:02.798Z,102942.56
2023-02-28T02:18:18.674Z,102945.13
2023-02-28T02:20:55.384Z,102946.03
2023-02-28T02:23:37.254Z,102943.44
2023-02-28T02:25:45.343Z,102939.09
2023-02-28T02:28:15.284Z,102937.38
2023-02-28T02:30:49.204Z,102937.38
2023-02-28T02:33:12.568Z,102928.75
2023-02-28T02:35:23.847Z,102925.28
2023-02-28T02:37:33.647Z,102933.06
2023-02-28T02:39:47.502Z,102921.84
2023-02-28T02:41:54.580Z,102923.56
2023-02-28T02:44:04.876Z,102924.44
2023-02-28T02:46:14.818Z,102920.13
2023-02-28T02:48:26.806Z,102933.06
2023-02-28T02:50:35.950Z,102931.34
2023-02-28T02:52:43.308Z,102924.44
2023-02-28T02:54:50.873Z,102925.31
2023-02-28T02:56:54.848Z,102919.28
2023-02-28T02:59:04.446Z,102922.72
2023-02-28T03:01:08.395Z,102915.81
2023-02-28T03:03:13.617Z,102927.88
2023-02-28T03:05:22.174Z,102920.09
2023-02-28T03:07:28.336Z,102922.66
2023-02-28T03:09:36.562Z,102917.50
2023-02-28T03:11:42.265Z,102926.09
2023-02-28T03:14:04.932Z,102926.09
2023-02-28T03:16:30.917Z,102927.81
2023-02-28T03:18:42.733Z,102924.34
2023-02-28T03:20:55.671Z,102930.38
2023-02-28T03:23:09.915Z,102928.63
2023-02-28T03:25:21.119Z,102929.47
2023-02-28T03:27:29.826Z,102926.88
2023-02-28T03:29:37.697Z,102930.28
2023-02-28T03:31:47.141Z,102932.84
2023-02-28T03:33:57.379Z,102941.44
2023-02-28T03:36:04.938Z,102943.16
2023-02-28T03:38:16.089Z,102948.31
2023-02-28T03:40:24.187Z,102941.44
2023-02-28T03:42:30.596Z,102937.13
2023-02-28T03:44:37.624Z,102939.69
2023-02-28T03:46:46.673Z,102937.13
2023-02-28T03:48:56.000Z,102934.53
2023-02-28T03:51:01.865Z,102941.38
2023-02-28T03:53:12.428Z,102935.31
2023-02-28T03:55:19.112Z,102937.84
2023-02-28T03:57:29.762Z,102946.44
2023-02-28T03:59:39.221Z,102943.84
2023-02-28T04:01:45.159Z,102949.81
2023-02-28T04:03:48.742Z,102946.31
2023-02-28T04:05:54.393Z,102941.97
2023-02-28T04:08:06.617Z,102947.97
2023-02-28T04:10:11.518Z,102949.66
2023-02-28T04:12:16.319Z,102952.16
2023-02-28T04:14:20.627Z,102947.81
2023-02-28T04:16:34.468Z,102946.91
2023-02-28T04:18:38.937Z,102948.56
2023-02-28T04:20:42.340Z,102947.66
2023-02-28T04:22:45.731Z,102947.59
2023-02-28T04:24:49.156Z,102957.88
2023-02-28T04:26:54.228Z,102947.53
2023-02-28T04:28:59.095Z,102955.22
2023-02-28T04:31:04.228Z,102960.31
2023-02-28T04:33:07.692Z,102954.25
2023-02-28T04:35:12.420Z,102956.78
2023-02-28T04:37:15.990Z,102952.44
2023-02-28T04:39:19.597Z,102950.75
2023-02-28T04:41:23.837Z,102945.56
2023-02-28T04:43:28.298Z,102949.81
2023-02-28T04:45:34.965Z,102954.09
2023-02-28T04:47:38.672Z,102959.22
2023-02-28T04:49:42.491Z,102954.88
2023-02-28T04:51:45.929Z,102960.84
2023-02-28T04:53:50.873Z,102960.78
2023-02-28T04:55:54.250Z,102953.88
2023-02-28T04:57:57.746Z,102960.72
2023-02-28T05:00:01.270Z,102960.66
2023-02-28T05:02:08.320Z,102955.44
2023-02-28T05:04:11.836Z,102969.13
2023-02-28T05:06:16.218Z,102961.31
2023-02-28T05:08:19.729Z,102967.28
2023-02-28T05:10:23.210Z,102968.94
2023-02-28T05:12:26.749Z,102969.72
2023-02-28T05:14:30.199Z,102966.22
2023-02-28T05:16:33.850Z,102962.72
2023-02-28T05:18:38.748Z,102960.94
2023-02-28T05:20:42.296Z,102958.31
2023-02-28T05:22:46.095Z,102961.66
2023-02-28T05:24:49.516Z,102959.88
2023-02-28T05:26:54.282Z,102962.41
2023-02-28T05:28:58.265Z,102970.09
2023-02-28T05:31:02.050Z,102970.03
2023-02-28T05:33:05.602Z,102975.19
2023-02-28T05:35:12.214Z,102974.25
2023-02-28T05:37:16.747Z,102974.22
2023-02-28T05:39:20.207Z,102974.16
2023-02-28T05:41:24.198Z,102979.25
2023-02-28T05:43:27.645Z,102976.59
2023-02-28T05:45:31.242Z,102981.69
2023-02-28T05:47:34.897Z,102976.50
2023-02-28T05:49:38.321Z,102980.75
2023-02-28T05:51:43.239Z,102981.59
2023-02-28T05:53:46.669Z,102992.72
2023-02-28T05:55:50.048Z,102984.94
2023-02-28T05:57:53.501Z,102984.91
2023-02-28T05:59:56.958Z,102983.13
2023-02-28T06:02:00.481Z,102989.97
2023-02-28T06:04:05.580Z,102990.78
2023-02-28T06:06:09.042Z,102990.78
2023-02-28T06:08:14.203Z,102990.78
2023-02-28T06:10:17.845Z,102988.19
2023-02-28T06:12:21.238Z,102988.16
2023-02-28T06:14:24.732Z,102989.84
2023-02-28T06:16:29.111Z,102997.56
2023-02-28T06:18:32.657Z,102989.00
2023-02-28T06:20:37.371Z,102995.88
2023-02-28T06:22:41.347Z,102989.84
2023-02-28T06:24:46.161Z,102991.53
2023-02-28T06:26:49.859Z,102993.25
2023-02-28T06:28:53.328Z,102999.25
2023-02-28T06:30:56.732Z,102991.53
2023-02-28T06:33:00.267Z,102997.50
2023-02-28T06:35:03.654Z,102994.09
2023-02-28T06:37:07.129Z,103007.81
2023-02-28T06:39:11.563Z,103010.44
2023-02-28T06:41:16.500Z,103005.28
2023-02-28T06:43:19.870Z,103017.31
2023-02-28T06:45:23.365Z,103006.19
2023-02-28T06:47:27.002Z,103010.50
2023-02-28T06:49:30.379Z,103015.66
2023-02-28T06:51:33.870Z,103012.25
2023-02-28T06:53:37.576Z,103010.56
2023-02-28T06:55:41.405Z,103017.47
2023-02-28T06:57:46.189Z,103019.22
2023-02-28T06:59:49.649Z,103016.72
2023-02-28T07:01:53.181Z,103019.34
2023-02-28T07:03:57.304Z,103013.38
2023-02-28T07:06:00.764Z,103009.97
2023-02-28T07:08:04.692Z,103010.91
2023-02-28T07:10:08.786Z,103017.84
2023-02-28T07:12:12.219Z,103019.63
2023-02-28T07:14:17.293Z,103022.28
2023-02-28T07:16:20.826Z,103018.06
2023-02-28T07:18:24.692Z,103026.72
2023-02-28T07:20:28.311Z,103027.66
2023-02-28T07:22:31.867Z,103030.31
2023-02-28T07:24:35.732Z,103028.69
2023-02-28T07:26:39.168Z,103025.34
2023-02-28T07:28:43.338Z,103028.84
2023-02-28T07:30:49.195Z,103028.09
2023-02-28T07:32:52.623Z,103031.66
2023-02-28T07:34:56.331Z,103030.88
2023-02-28T07:36:59.772Z,103032.66
2023-02-28T07:39:03.688Z,103017.28
2023-02-28T07:41:07.432Z,103029.44
2023-02-28T07:43:10.861Z,103026.94
2023-02-28T07:45:14.433Z,103030.47
2023-02-28T07:47:19.265Z,103026.25
2023-02-28T07:49:22.741Z,103029.81
2023-02-28T07:51:26.116Z,103026.44
2023-02-28T07:53:30.270Z,103029.97
2023-02-28T07:55:33.737Z,103030.94
2023-02-28T07:57:37.223Z,103031.84
2023-02-28T07:59:40.789Z,103030.22
2023-02-28T08:01:45.856Z,103043.25
2023-02-28T08:03:50.756Z,103045.03
2023-02-28T08:05:54.964Z,103037.38
2023-02-28T08:07:58.397Z,103037.47
2023-02-28T08:10:02.593Z,103031.50
2023-02-28T08:12:06.338Z,103029.88
2023-02-28T08:14:09.801Z,103033.41
2023-02-28T08:16:15.520Z,103039.50
2023-02-28T08:18:18.977Z,103038.72
2023-02-28T08:20:23.999Z,103032.75
2023-02-28T08:22:27.501Z,103038.81
2023-02-28T08:24:31.542Z,103042.34
2023-02-28T08:26:35.013Z,103038.94
2023-02-28T08:28:38.412Z,103038.09
2023-02-28T08:30:42.138Z,103037.28
2023-02-28T08:32:45.559Z,103038.19
2023-02-28T08:34:48.999Z,103039.94
2023-02-28T08:36:54.155Z,103041.69
2023-02-28T08:38:58.977Z,103042.59
2023-02-28T08:41:04.182Z,103043.47
2023-02-28T08:43:07.635Z,103046.97
2023-02-28T08:45:13.069Z,103042.69
2023-02-28T08:47:16.895Z,103048.75
2023-02-28T08:49:20.632Z,103038.38
2023-02-28T08:51:27.826Z,103043.59
2023-02-28T08:53:33.294Z,103047.91
2023-02-28T08:55:36.810Z,103050.53
2023-02-28T08:57:40.287Z,103043.59
2023-02-28T08:59:43.801Z,103054.84
2023-02-28T09:01:47.369Z,103044.50
2023-02-28T09:03:52.624Z,103049.69
2023-02-28T09:06:01.225Z,103043.63
2023-02-28T09:08:04.685Z,103049.69
2023-02-28T09:10:10.767Z,103052.28
2023-02-28T09:12:14.309Z,103047.09
2023-02-28T09:14:18.571Z,103053.97
2023-02-28T09:16:22.119Z,103056.56
2023-02-28T09:18:25.511Z,103053.97
2023-02-28T09:20:28.930Z,103053.97
2023-02-28T09:22:32.298Z,103049.63
2023-02-28T09:24:35.677Z,103046.16
2023-02-28T09:26:42.949Z,103047.03
2023-02-28T09:28:50.928Z,103051.34
2023-02-28T09:30:57.570Z,103063.44
2023-02-28T09:33:01.056Z,103052.16
2023-02-28T09:35:04.819Z,103053.88
2023-02-28T09:37:08.236Z,103053.88
2023-02-28T09:39:11.662Z,103054.72
2023-02-28T09:41:17.736Z,103054.72
2023-02-28T09:43:25.153Z,103059.03
2023-02-28T09:45:33.675Z,103060.78
2023-02-28T09:47:42.246Z,103062.44
2023-02-28T09:49:49.301Z,103052.94
2023-02-28T09:51:56.481Z,103063.31
2023-02-28T09:54:02.000Z,103062.41
2023-02-28T09:56:10.431Z,103063.28
2023-02-28T09:58:21.408Z,103065.00
2023-02-28T10:00:34.346Z,103063.22
2023-02-28T10:03:02.515Z,103061.47
2023-02-28T10:05:13.579Z,103060.59
2023-02-28T10:07:26.432Z,103061.44
2023-02-28T10:09:34.094Z,103057.09
2023-02-28T10:11:41.111Z,103059.66
2023-02-28T10:13:54.092Z,103059.66
2023-02-28T10:16:04.127Z,103057.00
2023-02-28T10:18:13.826Z,103055.25
2023-02-28T10:20:22.664Z,103058.69
2023-02-28T10:22:31.758Z,103060.41
2023-02-28T10:24:41.098Z,103056.94
2023-02-28T10:26:47.615Z,103067.28
2023-02-28T10:28:50.954Z,103062.09
2023-02-28T10:30:56.141Z,103060.28
2023-02-28T10:33:01.113Z,103055.06
2023-02-28T10:35:16.838Z,103052.47
2023-02-28T10:37:22.254Z,103051.56
2023-02-28T10:39:40.643Z,103055.00
2023-02-28T10:41:45.719Z,103061.91
2023-02-28T10:43:49.147Z,103047.19
2023-02-28T10:46:02.096Z,103054.09
2023-02-28T10:48:27.766Z,103053.25
2023-02-28T10:50:40.177Z,103059.31
2023-02-28T10:52:43.907Z,103056.69
2023-02-28T10:54:47.766Z,103052.34
2023-02-28T10:57:18.821Z,103061.81
2023-02-28T10:59:31.046Z,103053.13
2023-02-28T11:01:40.402Z,103057.44
2023-02-28T11:03:45.268Z,103060.00
2023-02-28T11:05:50.067Z,103049.56
2023-02-28T11:07:55.412Z,103053.88
2023-02-28T11:10:00.092Z,103051.19
2023-02-28T11:12:06.878Z,103049.44
2023-02-28T11:14:22.121Z,103060.66
2023-02-28T11:16:35.282Z,103055.41
2023-02-28T11:18:43.931Z,103052.78
2023-02-28T11:20:51.769Z,103050.09
2023-02-28T11:22:57.349Z,103050.06
2023-02-28T11:25:04.381Z,103047.44
2023-02-28T11:27:11.525Z,103047.41
2023-02-28T11:29:23.515Z,103048.25
2023-02-28T11:31:28.486Z,103039.53
2023-02-28T11:33:33.123Z,103037.78
2023-02-28T11:35:40.576Z,103038.56
2023-02-28T11:37:47.003Z,103035.91
2023-02-28T11:39:50.417Z,103036.75
2023-02-28T11:42:33.533Z,103035.88
2023-02-28T11:44:47.752Z,103022.84
2023-02-28T11:46:54.440Z,103026.25
2023-02-28T11:49:04.709Z,103032.31
2023-02-28T11:51:17.904Z,103033.16
2023-02-28T11:53:33.522Z,103024.47
2023-02-28T11:55:39.575Z,103026.16
2023-02-28T11:57:59.003Z,103015.69
2023-02-28T12:00:13.568Z,103015.59
2023-02-28T12:02:29.312Z,103012.03
2023-02-28T12:04:44.857Z,103011.09
2023-02-28T12:06:55.364Z,103004.97
2023-02-28T12:09:30.427Z,103004.88
2023-02-28T12:11:45.641Z,103005.69
2023-02-28T12:14:08.923Z,103001.28
2023-02-28T12:16:31.814Z,103004.69
2023-02-28T12:18:55.610Z,102995.03
2023-02-28T12:21:07.158Z,102983.56
2023-02-28T12:23:23.819Z,102983.44
2023-02-28T12:25:45.956Z,102971.94
2023-02-28T12:27:51.292Z,102970.97
2023-02-28T12:29:58.098Z,102976.09
2023-02-28T12:32:08.581Z,102965.56
2023-02-28T12:34:17.634Z,102962.06
2023-02-28T12:36:24.966Z,102960.34
2023-02-28T12:38:31.741Z,102962.09
2023-02-28T12:40:47.198Z,102957.84
2023-02-28T12:42:54.132Z,102954.47
2023-02-28T12:45:01.973Z,102951.88
2023-02-28T12:47:11.251Z,102950.09
2023-02-28T12:49:19.991Z,102950.00
2023-02-28T12:51:24.255Z,102937.78
2023-02-28T12:53:37.970Z,102931.56
2023-02-28T12:55:47.118Z,102932.28
2023-02-28T12:58:00.115Z,102928.78
2023-02-28T13:00:13.217Z,102922.66
2023-02-28T13:02:51.955Z,102926.94
2023-02-28T13:05:06.724Z,102919.97
2023-02-28T13:07:39.170Z,102921.75
2023-02-28T13:09:43.172Z,102918.31
2023-02-28T13:11:49.716Z,102927.03
2023-02-28T13:14:00.319Z,102911.38
2023-02-28T13:16:07.224Z,102913.91
2023-02-28T13:18:33.116Z,102903.13
2023-02-28T13:20:39.296Z,102907.81
2023-02-28T13:22:45.205Z,102906.25
2023-02-28T13:24:52.566Z,102903.13
2023-02-28T13:27:25.641Z,102902.59
2023-02-28T13:29:34.632Z,102901.34
2023-02-28T13:32:17.075Z,102902.72
2023-02-28T13:34:20.482Z,102889.69
2023-02-28T13:36:31.161Z,102887.09
2023-02-28T13:38:38.454Z,102893.34
2023-02-28T13:40:41.948Z,102896.06
2023-02-28T13:42:51.856Z,102892.59
2023-02-28T13:45:29.038Z,102893.34
2023-02-28T13:47:35.908Z,102888.75
2023-02-28T13:49:39.408Z,102888.44
2023-02-28T13:51:50.892Z,102893.59
2023-02-28T13:53:59.432Z,102887.66
2023-02-28T13:56:10.368Z,102897.50
2023-02-28T13:58:38.057Z,102895.13
2023-02-28T14:01:00.068Z,102894.59
2023-02-28T14:03:17.350Z,102900.16
2023-02-28T14:05:26.635Z,102893.34
2023-02-28T14:07:36.439Z,102887.47
2023-02-28T14:09:43.673Z,102891.13
2023-02-28T14:11:48.315Z,102898.13
2023-02-28T14:13:55.230Z,102899.91
2023-02-28T14:16:04.743Z,102905.94
2023-02-28T14:18:28.153Z,102900.38
2023-02-28T14:20:35.005Z,102904.38
2023-02-28T14:22:54.651Z,102900.66
2023-02-28T14:25:12.017Z,102907.41
2023-02-28T14:27:31.981Z,102900.84
2023-02-28T14:29:53.766Z,102902.75
2023-02-28T14:32:00.441Z,102899.44
2023-02-28T14:34:28.391Z,102895.28
2023-02-28T14:36:35.788Z,102901.53
2023-02-28T14:38:45.304Z,102902.69
2023-02-28T14:40:51.493Z,102912.28
2023-02-28T14:42:59.199Z,102901.34
2023-02-28T14:45:04.905Z,102902.59
2023-02-28T14:47:18.094Z,102896.84
2023-02-28T14:49:23.996Z,102903.16
2023-02-28T14:51:27.665Z,102897.63
2023-02-28T14:53:37.315Z,102900.03
2023-02-28T14:55:47.202Z,102901.72
2023-02-28T14:57:55.216Z,102903.91
2023-02-28T15:00:12.636Z,102894.66
2023-02-28T15:02:20.977Z,102889.09
2023-02-28T15:04:29.879Z,102894.91
2023-02-28T15:06:34.379Z,102890.97
2023-02-28T15:08:37.943Z,102896.41
2023-02-28T15:10:44.333Z,102891.72
2023-02-28T15:12:57.286Z,102888.44
2023-02-28T15:15:01.376Z,102880.91
2023-02-28T15:17:11.379Z,102883.06
2023-02-28T15:19:20.794Z,102883.66
2023-02-28T15:21:27.185Z,102876.97
2023-02-28T15:23:32.219Z,102873.75
2023-02-28T15:25:39.595Z,102869.69
2023-02-28T15:27:49.057Z,102870.94
2023-02-28T15:29:57.152Z,102872.19
2023-02-28T15:32:05.664Z,102870.47
2023-02-28T15:34:23.252Z,102872.97
2023-02-28T15:36:33.171Z,102872.09
2023-02-28T15:38:38.516Z,102864.44
2023-02-28T15:40:45.915Z,102867.31
2023-02-28T15:43:06.127Z,102862.44
2023-02-28T15:45:39.622Z,102858.41
2023-02-28T15:47:48.459Z,102861.25
2023-02-28T15:49:56.903Z,102849.34
2023-02-28T15:52:02.658Z,102851.47
2023-02-28T15:54:09.963Z,102849.22
2023-02-28T15:56:24.545Z,102853.06
2023-02-28T15:58:29.804Z,102856.00
2023-02-28T16:00:34.948Z,102851.91
2023-02-28T16:02:39.869Z,102841.66
2023-02-28T16:05:06.604Z,102845.28
2023-02-28T16:07:20.342Z,102843.69
2023-02-28T16:09:23.797Z,102839.50
2023-02-28T16:11:27.852Z,102845.78
2023-02-28T16:13:31.479Z,102843.38
2023-02-28T16:15:42.693Z,102847.09
2023-02-28T16:17:47.677Z,102857.81
2023-02-28T16:19:51.330Z,102852.94
2023-02-28T16:21:56.248Z,102855.88
2023-02-28T16:23:59.661Z,102857.03
2023-02-28T16:26:03.653Z,102855.59
2023-02-28T16:28:14.859Z,102857.53
2023-02-28T16:30:23.250Z,102863.00
2023-02-28T16:32:26.960Z,102858.91
2023-02-28T16:34:30.453Z,102864.34
2023-02-28T16:36:34.124Z,102856.75
2023-02-28T16:38:39.024Z,102855.25
2023-02-28T16:40:42.891Z,102869.34
2023-02-28T16:42:47.858Z,102864.38
2023-02-28T16:44:51.565Z,102869.75
2023-02-28T16:46:55.350Z,102859.56
2023-02-28T16:48:58.750Z,102863.16
2023-02-28T16:51:02.131Z,102865.09
2023-02-28T16:53:05.584Z,102866.94
2023-02-28T16:55:11.224Z,102875.72
2023-02-28T16:57:23.102Z,102871.56
2023-02-28T16:59:29.382Z,102870.81
2023-02-28T17:01:33.327Z,102876.13
2023-02-28T17:03:37.485Z,102872.78
2023-02-28T17:05:42.009Z,102880.69
2023-02-28T17:07:50.707Z,102882.53
2023-02-28T17:09:55.437Z,102886.09
2023-02-28T17:12:00.427Z,102885.28
2023-02-28T17:14:04.047Z,102887.13
2023-02-28T17:16:08.376Z,102890.66
2023-02-28T17:18:17.181Z,102890.72
2023-02-28T17:20:23.669Z,102890.81
2023-02-28T17:22:27.417Z,102896.06
2023-02-28T17:24:31.851Z,102901.31
2023-02-28T17:26:35.384Z,102895.34
2023-02-28T17:28:41.286Z,102896.28
2023-02-28T17:30:48.592Z,102901.53
2023-02-28T17:32:52.244Z,102905.06
2023-02-28T17:34:55.833Z,102903.38
2023-02-28T17:36:59.367Z,102906.03
2023-02-28T17:39:03.854Z,102899.16
2023-02-28T17:41:07.249Z,102910.44
2023-02-28T17:43:10.731Z,102898.34
2023-02-28T17:45:16.644Z,102908.78
2023-02-28T17:47:20.103Z,102908.78
2023-02-28T17:49:23.988Z,102908.81
2023-02-28T17:51:27.491Z,102915.78
2023-02-28T17:53:30.997Z,102918.38
2023-02-28T17:55:35.502Z,102917.50
2023-02-28T17:57:38.981Z,102922.69
2023-02-28T17:59:43.210Z,102917.56
2023-02-28T18:01:48.219Z,102924.47
2023-02-28T18:03:51.678Z,102922.72
2023-02-28T18:05:56.601Z,102921.88
2023-02-28T18:08:01.065Z,102926.22
2023-02-28T18:10:05.468Z,102920.16
2023-02-28T18:12:08.975Z,102914.13
2023-02-28T18:14:13.224Z,102926.19
2023-02-28T18:16:17.338Z,102919.28
2023-02-28T18:18:22.229Z,102919.31
2023-02-28T18:20:25.812Z,102919.28
2023-02-28T18:22:29.245Z,102926.19
2023-02-28T18:24:32.684Z,102921.84
2023-02-28T18:26:36.410Z,102931.34
2023-02-28T18:28:42.512Z,102924.44
2023-02-28T18:30:46.077Z,102936.50
2023-02-28T18:32:49.990Z,102929.59
2023-02-28T18:34:55.073Z,102932.16
2023-02-28T18:36:59.356Z,102928.69
2023-02-28T18:39:03.028Z,102932.16
2023-02-28T18:41:07.354Z,102930.41
2023-02-28T18:43:11.350Z,102926.09
2023-02-28T18:45:14.882Z,102924.34
2023-02-28T18:47:18.507Z,102929.50
2023-02-28T18:49:22.201Z,102927.75
2023-02-28T18:51:28.871Z,102930.34
2023-02-28T18:53:32.342Z,102939.81
2023-02-28T18:55:35.861Z,102932.88
2023-02-28T18:57:39.357Z,102927.69
2023-02-28T18:59:42.913Z,102929.41
2023-02-28T19:01:46.768Z,102925.06
2023-02-28T19:03:51.071Z,102926.78
2023-02-28T19:05:56.535Z,102921.63
2023-02-28T19:08:01.687Z,102922.47
2023-02-28T19:10:05.692Z,102929.34
2023-02-28T19:12:09.367Z,102934.47
2023-02-28T19:14:13.600Z,102930.16
2023-02-28T19:16:19.201Z,102920.66
2023-02-28T19:18:22.672Z,102923.22
2023-02-28T19:20:26.303Z,102923.19
2023-02-28T19:22:30.027Z,102922.34
2023-02-28T19:24:34.920Z,102925.75
2023-02-28T19:26:38.726Z,102935.22
2023-02-28T19:28:42.650Z,102930.84
2023-02-28T19:30:49.002Z,102929.97
2023-02-28T19:32:52.513Z,102939.41
2023-02-28T19:34:55.967Z,102941.97
2023-02-28T19:36:59.454Z,102939.41
2023-02-28T19:39:02.917Z,102942.81
2023-02-28T19:41:09.986Z,102942.78
2023-02-28T19:43:14.096Z,102945.34
2023-02-28T19:45:20.018Z,102941.00
2023-02-28T19:47:24.424Z,102949.56
2023-02-28T19:49:28.044Z,102946.94
2023-02-28T19:51:31.805Z,102950.34
2023-02-28T19:53:37.479Z,102952.94
2023-02-28T19:55:40.969Z,102947.75
2023-02-28T19:57:46.748Z,102954.59
2023-02-28T19:59:51.238Z,102954.56
2023-02-28T20:01:56.453Z,102945.94
2023-02-28T20:04:00.100Z,102943.34
2023-02-28T20:06:07.762Z,102944.19
2023-02-28T20:08:11.831Z,102939.84
2023-02-28T20:10:23.121Z,102933.78
2023-02-28T20:12:27.164Z,102949.28
2023-02-28T20:14:32.066Z,102947.53
2023-02-28T20:16:35.679Z,102950.06
2023-02-28T20:18:40.519Z,102951.75
2023-02-28T20:20:44.219Z,102948.28
2023-02-28T20:22:48.199Z,102945.69
2023-02-28T20:24:51.547Z,102938.78
2023-02-28T20:26:55.509Z,102948.19
2023-02-28T20:28:59.053Z,102948.16
2023-02-28T20:31:04.556Z,102946.44
2023-02-28T20:33:08.018Z,102936.97
2023-02-28T20:35:12.820Z,102944.66
2023-02-28T20:37:16.542Z,102947.22
2023-02-28T20:39:20.224Z,102947.22
2023-02-28T20:41:24.571Z,102943.75
2023-02-28T20:43:28.075Z,102944.56
2023-02-28T20:45:31.915Z,102948.88
2023-02-28T20:47:36.758Z,102953.97
2023-02-28T20:49:40.166Z,102945.38
2023-02-28T20:51:43.533Z,102946.19
2023-02-28T20:53:47.027Z,102947.88
2023-02-28T20:55:57.278Z,102944.41
2023-02-28T20:58:01.836Z,102940.13
2023-02-28T21:00:09.130Z,102945.28
2023-02-28T21:02:17.166Z,102933.25
2023-02-28T21:04:24.829Z,102934.09
2023-02-28T21:06:30.382Z,102942.66
2023-02-28T21:08:35.312Z,102938.31
2023-02-28T21:10:38.848Z,102943.44
2023-02-28T21:12:42.453Z,102945.09
2023-02-28T21:14:45.968Z,102947.63
2023-02-28T21:16:49.385Z,102945.91
2023-02-28T21:18:54.369Z,102945.00
2023-02-28T21:21:03.876Z,102944.09
2023-02-28T21:23:07.376Z,102937.22
2023-02-28T21:25:11.092Z,102943.22
2023-02-28T21:27:14.543Z,102939.75
2023-02-28T21:29:17.980Z,102941.44
2023-02-28T21:31:23.782Z,102948.28
2023-02-28T21:33:27.245Z,102946.50
2023-02-28T21:35:30.766Z,102948.19
2023-02-28T21:37:38.306Z,102950.72
2023-02-28T21:39:41.862Z,102947.25
2023-02-28T21:41:45.725Z,102947.22
2023-02-28T21:43:50.013Z,102951.53
2023-02-28T21:45:53.464Z,102949.78
2023-02-28T21:47:56.936Z,102954.09
2023-02-28T21:50:00.396Z,102950.63
2023-02-28T21:52:03.908Z,102949.72
2023-02-28T21:54:08.724Z,102946.25
2023-02-28T21:56:15.318Z,102953.13
2023-02-28T21:58:19.672Z,102956.53
2023-02-28T22:00:23.404Z,102958.25
2023-02-28T22:02:28.833Z,102950.50
2023-02-28T22:04:33.398Z,102958.22
2023-02-28T22:06:38.645Z,102951.31
2023-02-28T22:08:42.598Z,102947.81
2023-02-28T22:10:47.428Z,102951.22
2023-02-28T22:12:50.819Z,102956.38
2023-02-28T22:14:54.211Z,102952.91
2023-02-28T22:16:58.093Z,102949.50
2023-02-28T22:19:03.333Z,102946.88
2023-02-28T22:21:07.657Z,102947.72
2023-02-28T22:23:11.037Z,102942.53
2023-02-28T22:25:14.415Z,102945.97
2023-02-28T22:27:19.765Z,102933.94
2023-02-28T22:29:23.584Z,102945.06
2023-02-28T22:31:29.338Z,102951.06
2023-02-28T22:33:32.844Z,102942.44
2023-02-28T22:35:36.339Z,102947.59
2023-02-28T22:37:39.883Z,102947.56
2023-02-28T22:39:43.584Z,102950.97
2023-02-28T22:41:47.444Z,102961.25
2023-02-28T22:43:55.246Z,102962.94
2023-02-28T22:46:02.385Z,102967.22
2023-02-28T22:48:06.583Z,102968.94
2023-02-28T22:50:11.528Z,102961.22
2023-02-28T22:52:14.894Z,102961.22
2023-02-28T22:54:18.408Z,102962.94
2023-02-28T22:56:24.152Z,102961.25
2023-02-28T22:58:27.887Z,102964.72
2023-02-28T23:00:32.793Z,102963.03
2023-02-28T23:02:36.466Z,102963.09
2023-02-28T23:04:39.921Z,102959.69
2023-02-28T23:06:44.574Z,102962.28
2023-02-28T23:08:48.184Z,102970.84
2023-02-28T23:10:52.669Z,102968.28
2023-02-28T23:12:56.091Z,102971.72
2023-02-28T23:14:59.634Z,102973.44
2023-02-28T23:17:04.385Z,102967.44
2023-02-28T23:19:09.991Z,102971.72
2023-02-28T23:21:13.490Z,102964.00
2023-02-28T23:23:17.226Z,102966.56
2023-02-28T23:25:21.990Z,102961.41
2023-02-28T23:27:25.392Z,102965.69
2023-02-28T23:29:29.659Z,102959.69
2023-02-28T23:31:33.182Z,102954.53
2023-02-28T23:33:38.030Z,102960.53
2023-02-28T23:35:41.468Z,102954.53
2023-02-28T23:37:44.894Z,102950.25
2023-02-28T23:39:48.242Z,102946.84
2023-02-28T23:41:52.442Z,102945.13
2023-02-28T23:43:56.296Z,102945.97
2023-02-28T23:45:59.727Z,102942.56
2023-02-28T23:48:03.160Z,102948.59
2023-02-28T23:50:08.784Z,102935.72
2023-02-28T23:52:12.326Z,102934.00
2023-02-28T23:54:15.710Z,102937.41
2023-02-28T23:56:22.373Z,102940.81
2023-02-28T23:58:25.836Z,102946.84
